createdAt,value
2022-12-03T00:01:32.291Z,4.50
2022-12-03T00:04:36.754Z,4.50
2022-12-03T00:07:39.896Z,4.50
2022-12-03T00:10:43.266Z,4.50
2022-12-03T00:13:46.596Z,4.50
2022-12-03T00:16:49.698Z,4.50
2022-12-03T00:19:54.193Z,4.60
2022-12-03T00:22:57.287Z,4.60
2022-12-03T00:26:00.395Z,4.50
2022-12-03T00:29:03.548Z,4.50
2022-12-03T00:32:07.058Z,4.50
2022-12-03T00:35:11.980Z,4.50
2022-12-03T00:38:15.262Z,4.50
2022-12-03T00:41:18.412Z,4.50
2022-12-03T00:44:21.559Z,4.40
2022-12-03T00:47:24.729Z,4.40
2022-12-03T00:50:29.197Z,4.40
2022-12-03T00:53:32.477Z,4.40
2022-12-03T00:56:35.593Z,4.40
2022-12-03T00:59:38.726Z,4.40
2022-12-03T01:02:41.859Z,4.40
2022-12-03T01:05:46.326Z,4.30
2022-12-03T01:08:49.474Z,4.30
2022-12-03T01:11:52.594Z,4.40
2022-12-03T01:14:56.125Z,4.50
2022-12-03T01:17:59.337Z,4.40
2022-12-03T01:21:03.861Z,4.50
2022-12-03T01:24:07.656Z,4.40
2022-12-03T01:27:10.849Z,4.50
2022-12-03T01:30:15.130Z,4.50
2022-12-03T01:33:17.259Z,4.50
2022-12-03T01:36:21.763Z,4.60
2022-12-03T01:39:24.890Z,4.60
2022-12-03T01:42:30.785Z,4.70
2022-12-03T01:45:33.958Z,4.60
2022-12-03T01:48:38.971Z,4.60
2022-12-03T01:51:43.443Z,4.70
2022-12-03T01:54:49.137Z,4.60
2022-12-03T01:57:54.943Z,4.60
2022-12-03T02:00:59.133Z,4.50
2022-12-03T02:04:02.299Z,4.50
2022-12-03T02:07:24.510Z,4.40
2022-12-03T02:10:33.071Z,4.50
2022-12-03T02:13:37.181Z,4.50
2022-12-03T02:16:42.322Z,4.50
2022-12-03T02:19:45.564Z,4.40
2022-12-03T02:22:57.184Z,4.40
2022-12-03T02:26:01.847Z,4.40
2022-12-03T02:29:05.353Z,4.40
2022-12-03T02:32:08.600Z,4.50
2022-12-03T02:35:15.751Z,4.50
2022-12-03T02:38:21.378Z,4.40
2022-12-03T02:41:43.687Z,4.50
2022-12-03T02:44:46.909Z,4.40
2022-12-03T02:47:52.880Z,4.30
2022-12-03T02:50:58.840Z,4.30
2022-12-03T02:54:02.424Z,4.30
2022-12-03T02:57:07.303Z,4.40
2022-12-03T03:00:12.033Z,4.50
2022-12-03T03:03:15.246Z,4.50
2022-12-03T03:06:20.273Z,4.50
2022-12-03T03:09:23.568Z,4.50
2022-12-03T03:12:28.042Z,4.50
2022-12-03T03:15:31.765Z,4.60
2022-12-03T03:18:35.777Z,4.50
2022-12-03T03:21:38.936Z,4.50
2022-12-03T03:24:42.133Z,4.50
2022-12-03T03:27:46.869Z,4.50
2022-12-03T03:30:50.191Z,4.50
2022-12-03T03:33:53.356Z,4.50
2022-12-03T03:36:56.500Z,4.40
2022-12-03T03:39:59.669Z,4.50
2022-12-03T03:43:04.440Z,4.50
2022-12-03T03:46:09.285Z,4.60
2022-12-03T03:49:13.432Z,4.50
2022-12-03T03:52:16.639Z,4.50
2022-12-03T03:55:20.494Z,4.60
2022-12-03T03:58:25.034Z,4.60
2022-12-03T04:01:29.096Z,4.70
2022-12-03T04:04:37.187Z,4.70
2022-12-03T04:07:40.419Z,4.70
2022-12-03T04:11:00.820Z,4.70
2022-12-03T04:14:05.331Z,4.70
2022-12-03T04:17:08.514Z,4.70
2022-12-03T04:20:12.908Z,4.60
2022-12-03T04:23:15.016Z,4.50
2022-12-03T04:26:35.520Z,4.40
2022-12-03T04:29:40.177Z,4.50
2022-12-03T04:33:00.832Z,4.40
2022-12-03T04:36:04.036Z,4.40
2022-12-03T04:39:07.267Z,4.50
2022-12-03T04:42:10.441Z,4.50
2022-12-03T04:45:15.027Z,4.50
2022-12-03T04:48:18.249Z,4.50
2022-12-03T04:51:21.364Z,4.50
2022-12-03T04:54:24.687Z,4.40
2022-12-03T04:57:27.815Z,4.30
2022-12-03T05:00:32.272Z,4.30
2022-12-03T05:03:35.394Z,4.30
2022-12-03T05:06:38.544Z,4.40
2022-12-03T05:09:41.631Z,4.40
2022-12-03T05:12:44.745Z,4.40
2022-12-03T05:15:49.243Z,4.40
2022-12-03T05:18:52.400Z,4.40
2022-12-03T05:21:55.513Z,4.40
2022-12-03T05:24:58.610Z,4.50
2022-12-03T05:28:01.739Z,4.50
2022-12-03T05:31:06.337Z,4.60
2022-12-03T05:34:09.569Z,4.60
2022-12-03T05:37:12.683Z,4.60
2022-12-03T05:40:17.128Z,4.60
2022-12-03T05:43:19.342Z,4.60
2022-12-03T05:46:23.967Z,4.60
2022-12-03T05:49:27.607Z,4.70
2022-12-03T05:52:30.820Z,4.60
2022-12-03T05:55:34.076Z,4.60
2022-12-03T05:58:37.424Z,4.60
2022-12-03T06:01:41.885Z,4.60
2022-12-03T06:04:44.984Z,4.60
2022-12-03T06:07:48.432Z,4.60
2022-12-03T06:10:51.621Z,4.60
2022-12-03T06:13:54.718Z,4.50
2022-12-03T06:16:59.396Z,4.50
2022-12-03T06:20:02.650Z,4.50
2022-12-03T06:23:05.782Z,4.50
2022-12-03T06:26:08.908Z,4.40
2022-12-03T06:29:12.215Z,4.50
2022-12-03T06:32:16.798Z,4.50
2022-12-03T06:35:19.905Z,4.60
2022-12-03T06:38:23.422Z,4.60
2022-12-03T06:41:26.551Z,4.70
2022-12-03T06:44:29.638Z,4.70
2022-12-03T06:47:34.091Z,4.70
2022-12-03T06:50:37.203Z,4.70
2022-12-03T06:53:40.323Z,4.60
2022-12-03T06:56:45.486Z,4.70
2022-12-03T06:59:48.842Z,4.70
2022-12-03T07:02:53.352Z,4.50
2022-12-03T07:05:56.675Z,4.50
2022-12-03T07:08:59.789Z,4.60
2022-12-03T07:12:02.898Z,4.60
2022-12-03T07:15:07.136Z,4.70
2022-12-03T07:18:11.618Z,4.70
2022-12-03T07:21:14.757Z,4.70
2022-12-03T07:24:17.875Z,4.80
2022-12-03T07:27:20.999Z,4.80
2022-12-03T07:30:25.709Z,4.80
2022-12-03T07:33:30.424Z,4.80
2022-12-03T07:36:33.539Z,4.80
2022-12-03T07:39:36.744Z,4.80
2022-12-03T07:42:39.838Z,4.80
2022-12-03T07:45:42.928Z,4.90
2022-12-03T07:48:47.425Z,4.80
2022-12-03T07:51:54.222Z,4.90
2022-12-03T07:54:57.328Z,4.90
2022-12-03T07:58:00.473Z,4.90
2022-12-03T08:01:03.680Z,5.00
2022-12-03T08:04:08.509Z,5.00
2022-12-03T08:07:11.670Z,5.10
2022-12-03T08:10:14.922Z,5.10
2022-12-03T08:13:19.800Z,5.20
2022-12-03T08:16:24.067Z,5.20
2022-12-03T08:19:28.639Z,5.20
2022-12-03T08:22:31.758Z,5.10
2022-12-03T08:25:35.320Z,5.10
2022-12-03T08:28:38.441Z,5.10
2022-12-03T08:31:42.056Z,5.20
2022-12-03T08:34:46.664Z,5.30
2022-12-03T08:37:56.808Z,5.20
2022-12-03T08:40:59.921Z,5.20
2022-12-03T08:44:12.211Z,5.30
2022-12-03T08:47:20.293Z,5.30
2022-12-03T08:50:29.783Z,5.30
2022-12-03T08:53:38.282Z,5.30
2022-12-03T08:56:43.980Z,5.30
2022-12-03T08:59:48.200Z,5.40
2022-12-03T09:02:54.316Z,5.40
2022-12-03T09:05:58.953Z,5.40
2022-12-03T09:09:06.520Z,5.50
2022-12-03T09:12:10.101Z,5.50
2022-12-03T09:15:13.417Z,5.50
2022-12-03T09:18:16.665Z,5.60
2022-12-03T09:21:21.151Z,5.70
2022-12-03T09:24:24.625Z,5.70
2022-12-03T09:27:27.772Z,5.80
2022-12-03T09:30:30.965Z,5.80
2022-12-03T09:33:34.081Z,5.80
2022-12-03T09:36:38.570Z,5.80
2022-12-03T09:39:41.742Z,5.90
2022-12-03T09:42:44.898Z,5.90
2022-12-03T09:45:48.830Z,5.90
2022-12-03T09:48:52.132Z,5.90
2022-12-03T09:51:57.832Z,5.90
2022-12-03T09:55:01.820Z,5.90
2022-12-03T09:58:12.921Z,5.90
2022-12-03T10:01:17.110Z,5.90
2022-12-03T10:04:20.632Z,5.90
2022-12-03T10:07:26.942Z,5.80
2022-12-03T10:10:30.150Z,5.80
2022-12-03T10:13:34.633Z,5.70
2022-12-03T10:16:40.317Z,5.60
2022-12-03T10:19:44.711Z,5.50
2022-12-03T10:22:49.269Z,5.50
2022-12-03T10:25:54.459Z,5.40
2022-12-03T10:28:57.543Z,5.50
2022-12-03T10:32:03.182Z,5.50
2022-12-03T10:35:12.966Z,5.60
2022-12-03T10:38:23.397Z,5.60
2022-12-03T10:41:28.723Z,5.70
2022-12-03T10:44:31.840Z,5.80
2022-12-03T10:47:35.212Z,5.70
2022-12-03T10:50:38.829Z,5.50
2022-12-03T10:53:43.485Z,5.50
2022-12-03T10:56:48.399Z,5.50
2022-12-03T10:59:51.706Z,5.40
2022-12-03T11:02:57.026Z,5.40
2022-12-03T11:06:02.956Z,5.50
2022-12-03T11:09:18.104Z,5.50
2022-12-03T11:12:23.550Z,5.50
2022-12-03T11:15:43.689Z,5.50
2022-12-03T11:19:01.224Z,5.50
2022-12-03T11:22:41.842Z,5.60
2022-12-03T11:25:51.473Z,5.50
2022-12-03T11:28:55.950Z,5.50
2022-12-03T11:31:59.052Z,5.50
2022-12-03T11:35:02.180Z,5.60
2022-12-03T11:38:53.035Z,5.60
2022-12-03T11:42:38.680Z,5.60
2022-12-03T11:45:41.846Z,5.70
2022-12-03T11:49:01.231Z,5.70
2022-12-03T11:52:21.829Z,5.70
2022-12-03T11:55:30.258Z,5.70
2022-12-03T11:58:35.976Z,5.80
2022-12-03T12:01:40.599Z,5.80
2022-12-03T12:04:47.596Z,5.80
2022-12-03T12:07:51.912Z,5.80
2022-12-03T12:10:55.083Z,5.80
2022-12-03T12:14:00.402Z,5.80
2022-12-03T12:17:05.081Z,5.80
2022-12-03T12:20:26.261Z,5.90
2022-12-03T12:23:30.356Z,5.90
2022-12-03T12:26:33.512Z,5.90
2022-12-03T12:29:39.650Z,6.00
2022-12-03T12:32:47.237Z,5.90
2022-12-03T12:35:50.671Z,6.00
2022-12-03T12:38:53.812Z,6.00
2022-12-03T12:41:56.996Z,6.00
2022-12-03T12:45:10.475Z,6.00
2022-12-03T12:48:21.065Z,6.00
2022-12-03T12:51:25.024Z,6.00
2022-12-03T12:54:28.186Z,6.00
2022-12-03T12:57:31.290Z,5.90
2022-12-03T13:00:35.962Z,5.90
2022-12-03T13:03:40.597Z,5.90
2022-12-03T13:06:43.907Z,5.80
2022-12-03T13:09:48.869Z,5.80
2022-12-03T13:12:51.999Z,5.80
2022-12-03T13:16:02.812Z,5.90
2022-12-03T13:19:20.883Z,6.00
2022-12-03T13:22:25.624Z,6.00
2022-12-03T13:29:07.363Z,5.90
2022-12-03T13:32:14.816Z,5.90
2022-12-03T13:35:27.715Z,5.90
2022-12-03T13:38:31.295Z,5.90
2022-12-03T13:41:52.351Z,5.90
2022-12-03T13:44:57.454Z,5.90
2022-12-03T13:48:03.940Z,6.00
2022-12-03T13:51:20.911Z,5.90
2022-12-03T13:54:27.606Z,6.10
2022-12-03T13:57:30.740Z,6.10
2022-12-03T14:00:33.873Z,6.10
2022-12-03T14:03:38.363Z,6.10
2022-12-03T14:06:41.495Z,6.20
2022-12-03T14:09:44.622Z,6.20
2022-12-03T14:12:47.768Z,6.20
2022-12-03T14:15:50.922Z,6.20
2022-12-03T14:18:55.412Z,6.10
2022-12-03T14:21:58.528Z,6.10
2022-12-03T14:25:01.635Z,6.10
2022-12-03T14:28:08.686Z,6.10
2022-12-03T14:31:11.996Z,6.10
2022-12-03T14:34:16.663Z,6.10
2022-12-03T14:37:19.901Z,6.10
2022-12-03T14:40:23.264Z,6.10
2022-12-03T14:43:26.429Z,6.00
2022-12-03T14:46:29.645Z,6.00
2022-12-03T14:49:34.231Z,5.90
2022-12-03T14:52:38.518Z,5.80
2022-12-03T14:55:41.613Z,5.80
2022-12-03T14:58:44.754Z,5.80
2022-12-03T15:01:47.891Z,5.80
2022-12-03T15:04:52.457Z,5.70
2022-12-03T15:07:55.713Z,5.80
2022-12-03T15:10:59.005Z,5.70
2022-12-03T15:14:02.352Z,5.70
2022-12-03T15:17:05.586Z,5.70
2022-12-03T15:20:12.364Z,5.70
2022-12-03T15:23:15.843Z,5.70
2022-12-03T15:26:19.038Z,5.70
2022-12-03T15:29:22.495Z,5.60
2022-12-03T15:32:25.633Z,5.60
2022-12-03T15:35:30.510Z,5.60
2022-12-03T15:38:34.640Z,5.60
2022-12-03T15:41:38.894Z,5.60
2022-12-03T15:44:42.112Z,5.60
2022-12-03T15:47:45.295Z,5.60
2022-12-03T15:50:50.344Z,5.50
2022-12-03T15:53:54.125Z,5.50
2022-12-03T15:56:57.977Z,5.50
2022-12-03T16:00:01.916Z,5.40
2022-12-03T16:03:05.299Z,5.40
2022-12-03T16:06:10.712Z,5.30
2022-12-03T16:09:14.147Z,5.30
2022-12-03T16:12:17.540Z,5.40
2022-12-03T16:15:26.701Z,5.40
2022-12-03T16:18:30.827Z,5.40
2022-12-03T16:21:35.775Z,5.40
2022-12-03T16:24:39.929Z,5.40
2022-12-03T16:27:43.929Z,5.30
2022-12-03T16:30:47.663Z,5.30
2022-12-03T16:33:51.712Z,5.30
2022-12-03T16:36:56.673Z,5.30
2022-12-03T16:40:00.525Z,5.20
2022-12-03T16:43:04.911Z,5.30
2022-12-03T16:46:21.438Z,5.40
2022-12-03T16:49:25.074Z,5.40
2022-12-03T16:52:30.806Z,5.30
2022-12-03T16:55:34.009Z,5.30
2022-12-03T16:58:37.583Z,5.40
2022-12-03T17:01:41.715Z,5.40
2022-12-03T17:04:45.591Z,5.40
2022-12-03T17:07:50.844Z,5.50
2022-12-03T17:10:54.465Z,5.50
2022-12-03T17:13:58.215Z,5.40
2022-12-03T17:17:01.455Z,5.50
2022-12-03T17:20:06.232Z,5.50
2022-12-03T17:23:12.293Z,5.50
2022-12-03T17:26:16.720Z,5.50
2022-12-03T17:29:20.220Z,5.50
2022-12-03T17:32:23.333Z,5.50
2022-12-03T17:35:27.154Z,5.50
2022-12-03T17:38:37.277Z,5.50
2022-12-03T17:41:42.534Z,5.40
2022-12-03T17:44:45.894Z,5.40
2022-12-03T17:47:49.781Z,5.50
2022-12-03T17:50:55.664Z,5.40
2022-12-03T17:54:00.653Z,5.50
2022-12-03T17:57:04.507Z,5.50
2022-12-03T18:00:09.817Z,5.50
2022-12-03T18:03:12.993Z,5.40
2022-12-03T18:06:16.450Z,5.40
2022-12-03T18:09:21.777Z,5.30
2022-12-03T18:12:25.246Z,5.30
2022-12-03T18:15:28.462Z,5.20
2022-12-03T18:18:31.916Z,5.20
2022-12-03T18:21:36.244Z,5.30
2022-12-03T18:24:40.823Z,5.40
2022-12-03T18:27:44.257Z,5.40
2022-12-03T18:30:52.532Z,5.40
2022-12-03T18:33:56.820Z,5.30
2022-12-03T18:37:01.160Z,5.40
2022-12-03T18:40:12.795Z,5.40
2022-12-03T18:43:18.052Z,5.50
2022-12-03T18:46:51.945Z,5.50
2022-12-03T18:49:46.619Z,5.50
2022-12-03T18:52:50.637Z,5.40
2022-12-03T18:55:56.743Z,5.40
2022-12-03T18:59:00.645Z,5.40
2022-12-03T19:02:05.015Z,5.50
2022-12-03T19:05:09.759Z,5.40
2022-12-03T19:08:15.859Z,5.40
2022-12-03T19:11:22.294Z,5.40
2022-12-03T19:14:26.423Z,5.40
2022-12-03T19:17:31.060Z,5.50
2022-12-03T19:20:35.013Z,5.60
2022-12-03T19:23:40.944Z,5.60
2022-12-03T19:26:47.618Z,5.60
2022-12-03T19:29:53.384Z,5.60
2022-12-03T19:32:59.539Z,5.60
2022-12-03T19:36:05.405Z,5.60
2022-12-03T19:39:09.842Z,5.70
2022-12-03T19:42:23.783Z,5.70
2022-12-03T19:45:29.268Z,5.70
2022-12-03T19:48:35.068Z,5.70
2022-12-03T19:51:40.255Z,5.80
2022-12-03T19:54:45.814Z,5.80
2022-12-03T19:57:51.139Z,5.90
2022-12-03T20:01:03.639Z,5.90
2022-12-03T20:04:08.729Z,5.90
2022-12-03T20:07:13.636Z,6.00
2022-12-03T20:10:18.442Z,5.90
2022-12-03T20:13:24.581Z,6.00
2022-12-03T20:16:30.878Z,6.00
2022-12-03T20:19:36.546Z,6.00
2022-12-03T20:22:40.921Z,6.00
2022-12-03T20:25:45.944Z,6.00
2022-12-03T20:28:54.232Z,6.00
2022-12-03T20:32:01.210Z,6.10
2022-12-03T20:35:10.700Z,6.00
2022-12-03T20:38:15.470Z,5.90
2022-12-03T20:41:20.751Z,5.90
2022-12-03T20:44:26.187Z,5.80
2022-12-03T20:47:30.134Z,5.90
2022-12-03T20:50:34.960Z,5.90
2022-12-03T20:53:39.561Z,6.00
2022-12-03T20:56:44.295Z,6.00
2022-12-03T20:59:49.891Z,6.00
2022-12-03T21:02:53.844Z,5.90
2022-12-03T21:06:02.012Z,6.00
2022-12-03T21:09:07.875Z,6.00
2022-12-03T21:12:11.792Z,6.10
2022-12-03T21:15:17.387Z,6.10
2022-12-03T21:18:21.391Z,6.10
2022-12-03T21:21:25.007Z,6.10
2022-12-03T21:24:28.156Z,6.10
2022-12-03T21:27:32.014Z,6.10
2022-12-03T21:30:39.712Z,6.10
2022-12-03T21:33:43.329Z,6.10
2022-12-03T21:36:46.500Z,6.10
2022-12-03T21:39:50.060Z,6.10
2022-12-03T21:42:54.284Z,6.10
2022-12-03T21:46:01.311Z,6.10
2022-12-03T21:49:04.992Z,6.00
2022-12-03T21:52:09.083Z,6.10
2022-12-03T21:55:13.045Z,6.10
2022-12-03T21:58:18.690Z,6.10
2022-12-03T22:01:25.922Z,6.10
2022-12-03T22:04:29.482Z,6.20
2022-12-03T22:07:35.158Z,6.20
2022-12-03T22:10:38.633Z,6.20
2022-12-03T22:13:42.639Z,6.20
2022-12-03T22:16:47.125Z,6.20
2022-12-03T22:19:50.265Z,6.20
2022-12-03T22:22:53.371Z,6.20
2022-12-03T22:26:00.558Z,6.10
2022-12-03T22:29:03.656Z,6.10
2022-12-03T22:32:08.255Z,6.00
2022-12-03T22:35:11.512Z,6.10
2022-12-03T22:38:14.628Z,6.10
2022-12-03T22:41:18.194Z,6.20
2022-12-03T22:44:21.290Z,6.20
2022-12-03T22:47:25.791Z,6.20
2022-12-03T22:50:28.865Z,6.20
2022-12-03T22:53:32.088Z,6.20
2022-12-03T22:56:35.212Z,6.20
2022-12-03T22:59:38.305Z,6.20
2022-12-03T23:02:42.827Z,6.20
2022-12-03T23:05:46.037Z,6.30
2022-12-03T23:08:49.719Z,6.20
2022-12-03T23:11:52.845Z,6.20
2022-12-03T23:14:56.235Z,6.30
2022-12-03T23:18:01.349Z,6.30
2022-12-03T23:21:04.479Z,6.30
2022-12-03T23:24:08.083Z,6.30
2022-12-03T23:27:11.221Z,6.30
2022-12-03T23:30:15.886Z,6.30
2022-12-03T23:33:20.472Z,6.30
2022-12-03T23:36:25.302Z,6.30
2022-12-03T23:39:28.460Z,6.30
2022-12-03T23:42:31.620Z,6.30
2022-12-03T23:45:35.468Z,6.30
2022-12-03T23:48:40.536Z,6.30
2022-12-03T23:51:43.768Z,6.30
2022-12-03T23:54:46.946Z,6.30
2022-12-03T23:57:50.063Z,6.20
